sensor_id;sensor_type;location;lat;lon;timestamp;pressure;altitude;pressure_sealevel;temperature;humidity
15050;BME280;7622;42.724;23.250;2023-02-17T00:01:58;95600.16;;;3.20;100.00
15050;BME280;7622;42.724;23.250;2023-02-17T00:04:26;95590.78;;;3.19;100.00
15050;BME280;7622;42.724;23.250;2023-02-17T00:06:53;95590.50;;;3.08;100.00
15050;BME280;7622;42.724;23.250;2023-02-17T00:09:21;95581.59;;;3.15;100.00
15050;BME280;7622;42.724;23.250;2023-02-17T00:11:49;95566.94;;;3.17;100.00
15050;BME280;7622;42.724;23.250;2023-02-17T00:14:15;95589.88;;;3.20;100.00
15050;BME280;7622;42.724;23.250;2023-02-17T00:16:43;95585.06;;;3.14;100.00
15050;BME280;7622;42.724;23.250;2023-02-17T00:19:11;95559.31;;;2.98;100.00
15050;BME280;7622;42.724;23.250;2023-02-17T00:21:48;95588.22;;;3.19;100.00
15050;BME280;7622;42.724;23.250;2023-02-17T00:24:15;95588.53;;;3.13;100.00
15050;BME280;7622;42.724;23.250;2023-02-17T00:26:44;95578.44;;;3.10;100.00
15050;BME280;7622;42.724;23.250;2023-02-17T00:29:10;95581.00;;;3.10;100.00
15050;BME280;7622;42.724;23.250;2023-02-17T00:31:37;95558.22;;;3.04;100.00
15050;BME280;7622;42.724;23.250;2023-02-17T00:34:04;95560.31;;;2.96;100.00
15050;BME280;7622;42.724;23.250;2023-02-17T00:36:31;95561.81;;;3.00;100.00
15050;BME280;7622;42.724;23.250;2023-02-17T00:38:58;95558.56;;;3.13;100.00
15050;BME280;7622;42.724;23.250;2023-02-17T00:41:26;95556.13;;;3.28;100.00
15050;BME280;7622;42.724;23.250;2023-02-17T00:43:56;95567.53;;;3.22;100.00
15050;BME280;7622;42.724;23.250;2023-02-17T00:46:24;95572.50;;;3.25;100.00
15050;BME280;7622;42.724;23.250;2023-02-17T00:48:51;95579.16;;;3.12;100.00
15050;BME280;7622;42.724;23.250;2023-02-17T00:51:18;95567.19;;;2.95;100.00
15050;BME280;7622;42.724;23.250;2023-02-17T00:53:45;95565.75;;;2.90;100.00
15050;BME280;7622;42.724;23.250;2023-02-17T00:56:12;95570.25;;;2.67;100.00
15050;BME280;7622;42.724;23.250;2023-02-17T00:58:39;95576.72;;;2.57;100.00
15050;BME280;7622;42.724;23.250;2023-02-17T01:01:08;95570.84;;;2.72;100.00
15050;BME280;7622;42.724;23.250;2023-02-17T01:03:35;95560.25;;;2.44;100.00
15050;BME280;7622;42.724;23.250;2023-02-17T01:06:05;95558.97;;;2.17;100.00
15050;BME280;7622;42.724;23.250;2023-02-17T01:08:32;95542.28;;;2.27;100.00
15050;BME280;7622;42.724;23.250;2023-02-17T01:10:59;95552.72;;;2.22;100.00
15050;BME280;7622;42.724;23.250;2023-02-17T01:13:26;95556.59;;;2.31;100.00
15050;BME280;7622;42.724;23.250;2023-02-17T01:15:53;95549.28;;;2.23;100.00
15050;BME280;7622;42.724;23.250;2023-02-17T01:18:22;95558.03;;;2.19;100.00
15050;BME280;7622;42.724;23.250;2023-02-17T01:20:50;95548.34;;;2.07;100.00
15050;BME280;7622;42.724;23.250;2023-02-17T01:23:17;95547.22;;;2.13;100.00
15050;BME280;7622;42.724;23.250;2023-02-17T01:25:45;95539.88;;;2.05;100.00
15050;BME280;7622;42.724;23.250;2023-02-17T01:28:14;95549.59;;;1.98;100.00
15050;BME280;7622;42.724;23.250;2023-02-17T01:30:41;95547.06;;;2.16;100.00
15050;BME280;7622;42.724;23.250;2023-02-17T01:33:08;95539.19;;;2.02;100.00
15050;BME280;7622;42.724;23.250;2023-02-17T01:35:37;95539.81;;;2.07;100.00
15050;BME280;7622;42.724;23.250;2023-02-17T01:38:03;95544.66;;;2.13;100.00
15050;BME280;7622;42.724;23.250;2023-02-17T01:40:30;95542.38;;;2.07;100.00
15050;BME280;7622;42.724;23.250;2023-02-17T01:42:57;95539.38;;;2.16;100.00
15050;BME280;7622;42.724;23.250;2023-02-17T01:45:40;95543.06;;;2.10;100.00
15050;BME280;7622;42.724;23.250;2023-02-17T01:48:13;95548.06;;;2.13;100.00
15050;BME280;7622;42.724;23.250;2023-02-17T01:50:46;95542.47;;;2.41;100.00
15050;BME280;7622;42.724;23.250;2023-02-17T01:53:19;95543.38;;;2.21;100.00
15050;BME280;7622;42.724;23.250;2023-02-17T01:55:48;95542.56;;;2.21;100.00
15050;BME280;7622;42.724;23.250;2023-02-17T01:58:18;95538.06;;;2.26;100.00
15050;BME280;7622;42.724;23.250;2023-02-17T02:00:51;95528.22;;;2.17;100.00
15050;BME280;7622;42.724;23.250;2023-02-17T02:03:18;95530.84;;;2.34;100.00
15050;BME280;7622;42.724;23.250;2023-02-17T02:05:47;95533.06;;;2.23;100.00
15050;BME280;7622;42.724;23.250;2023-02-17T02:08:14;95533.50;;;2.14;100.00
15050;BME280;7622;42.724;23.250;2023-02-17T02:10:41;95528.84;;;2.22;100.00
15050;BME280;7622;42.724;23.250;2023-02-17T02:13:08;95520.06;;;2.09;100.00
15050;BME280;7622;42.724;23.250;2023-02-17T02:15:39;95523.09;;;2.17;100.00
15050;BME280;7622;42.724;23.250;2023-02-17T02:18:21;95533.06;;;2.23;100.00
15050;BME280;7622;42.724;23.250;2023-02-17T02:24:20;95533.72;;;1.90;100.00
15050;BME280;7622;42.724;23.250;2023-02-17T02:27:21;95520.22;;;2.06;100.00
15050;BME280;7622;42.724;23.250;2023-02-17T02:30:14;95517.31;;;2.13;100.00
15050;BME280;7622;42.724;23.250;2023-02-17T02:32:58;95518.19;;;2.12;100.00
15050;BME280;7622;42.724;23.250;2023-02-17T02:35:35;95480.91;;;2.07;100.00
15050;BME280;7622;42.724;23.250;2023-02-17T02:38:11;95519.47;;;2.40;100.00
15050;BME280;7622;42.724;23.250;2023-02-17T02:40:42;95482.41;;;2.11;100.00
15050;BME280;7622;42.724;23.250;2023-02-17T02:43:11;95507.72;;;2.53;100.00
15050;BME280;7622;42.724;23.250;2023-02-17T02:45:38;95534.13;;;2.72;100.00
15050;BME280;7622;42.724;23.250;2023-02-17T02:48:06;95535.41;;;2.81;100.00
15050;BME280;7622;42.724;23.250;2023-02-17T02:50:46;95524.22;;;2.64;100.00
15050;BME280;7622;42.724;23.250;2023-02-17T02:53:27;95525.34;;;2.59;100.00
15050;BME280;7622;42.724;23.250;2023-02-17T02:56:01;95525.44;;;2.57;100.00
15050;BME280;7622;42.724;23.250;2023-02-17T02:58:37;95524.59;;;2.40;100.00
15050;BME280;7622;42.724;23.250;2023-02-17T03:01:13;95525.84;;;2.31;100.00
15050;BME280;7622;42.724;23.250;2023-02-17T03:03:47;95524.94;;;2.32;100.00
15050;BME280;7622;42.724;23.250;2023-02-17T03:06:20;95524.66;;;2.38;100.00
15050;BME280;7622;42.724;23.250;2023-02-17T03:08:51;95523.59;;;2.42;100.00
15050;BME280;7622;42.724;23.250;2023-02-17T03:11:22;95529.41;;;2.46;100.00
15050;BME280;7622;42.724;23.250;2023-02-17T03:13:59;95526.50;;;2.53;100.00
15050;BME280;7622;42.724;23.250;2023-02-17T03:16:26;95520.28;;;2.40;100.00
15050;BME280;7622;42.724;23.250;2023-02-17T03:18:55;95509.88;;;2.43;100.00
15050;BME280;7622;42.724;23.250;2023-02-17T03:21:22;95519.72;;;2.69;100.00
15050;BME280;7622;42.724;23.250;2023-02-17T03:23:51;95532.47;;;2.88;100.00
15050;BME280;7622;42.724;23.250;2023-02-17T03:26:18;95539.75;;;2.44;100.00
15050;BME280;7622;42.724;23.250;2023-02-17T03:28:44;95546.97;;;2.00;100.00
15050;BME280;7622;42.724;23.250;2023-02-17T03:31:11;95535.47;;;1.90;100.00
15050;BME280;7622;42.724;23.250;2023-02-17T03:33:38;95517.63;;;1.51;100.00
15050;BME280;7622;42.724;23.250;2023-02-17T03:36:07;95531.25;;;1.51;100.00
15050;BME280;7622;42.724;23.250;2023-02-17T03:38:33;95538.00;;;1.52;100.00
15050;BME280;7622;42.724;23.250;2023-02-17T03:41:00;95537.59;;;1.43;100.00
15050;BME280;7622;42.724;23.250;2023-02-17T03:43:27;95537.75;;;1.58;100.00
15050;BME280;7622;42.724;23.250;2023-02-17T03:45:54;95546.44;;;1.73;100.00
15050;BME280;7622;42.724;23.250;2023-02-17T03:48:21;95511.09;;;1.44;100.00
15050;BME280;7622;42.724;23.250;2023-02-17T03:50:47;95532.41;;;1.63;100.00
15050;BME280;7622;42.724;23.250;2023-02-17T03:53:15;95523.81;;;1.45;100.00
15050;BME280;7622;42.724;23.250;2023-02-17T03:55:42;95523.06;;;1.43;100.00
15050;BME280;7622;42.724;23.250;2023-02-17T03:58:09;95530.63;;;1.65;100.00
15050;BME280;7622;42.724;23.250;2023-02-17T04:00:36;95542.22;;;1.53;100.00
15050;BME280;7622;42.724;23.250;2023-02-17T04:03:03;95537.53;;;1.63;100.00
15050;BME280;7622;42.724;23.250;2023-02-17T04:05:30;95531.25;;;1.70;100.00
15050;BME280;7622;42.724;23.250;2023-02-17T04:07:57;95524.94;;;1.58;100.00
15050;BME280;7622;42.724;23.250;2023-02-17T04:10:25;95532.41;;;1.63;100.00
15050;BME280;7622;42.724;23.250;2023-02-17T04:12:52;95542.25;;;1.72;100.00
15050;BME280;7622;42.724;23.250;2023-02-17T04:15:19;95532.91;;;1.71;100.00
15050;BME280;7622;42.724;23.250;2023-02-17T04:17:45;95530.00;;;1.79;100.00
15050;BME280;7622;42.724;23.250;2023-02-17T04:20:12;95526.63;;;1.78;100.00
15050;BME280;7622;42.724;23.250;2023-02-17T04:22:39;95537.69;;;1.79;100.00
15050;BME280;7622;42.724;23.250;2023-02-17T04:25:06;95532.91;;;1.90;100.00
15050;BME280;7622;42.724;23.250;2023-02-17T04:27:34;95528.44;;;2.65;100.00
15050;BME280;7622;42.724;23.250;2023-02-17T04:30:01;95528.94;;;2.37;100.00
15050;BME280;7622;42.724;23.250;2023-02-17T04:32:28;95521.88;;;2.07;100.00
15050;BME280;7622;42.724;23.250;2023-02-17T04:34:55;95526.44;;;2.19;100.00
15050;BME280;7622;42.724;23.250;2023-02-17T04:37:21;95518.97;;;1.95;100.00
15050;BME280;7622;42.724;23.250;2023-02-17T04:39:48;95525.28;;;1.88;100.00
15050;BME280;7622;42.724;23.250;2023-02-17T04:42:15;95529.94;;;1.99;100.00
15050;BME280;7622;42.724;23.250;2023-02-17T04:44:43;95536.03;;;1.78;100.00
15050;BME280;7622;42.724;23.250;2023-02-17T04:47:10;95529.66;;;1.86;100.00
15050;BME280;7622;42.724;23.250;2023-02-17T04:49:37;95540.25;;;1.97;100.00
15050;BME280;7622;42.724;23.250;2023-02-17T04:52:04;95538.84;;;1.90;100.00
15050;BME280;7622;42.724;23.250;2023-02-17T04:54:31;95526.63;;;1.78;100.00
15050;BME280;7622;42.724;23.250;2023-02-17T04:56:57;95534.56;;;1.91;100.00
15050;BME280;7622;42.724;23.250;2023-02-17T04:59:24;95536.56;;;1.84;100.00
15050;BME280;7622;42.724;23.250;2023-02-17T05:01:52;95536.16;;;1.93;100.00
15050;BME280;7622;42.724;23.250;2023-02-17T05:04:19;95518.28;;;2.11;100.00
15050;BME280;7622;42.724;23.250;2023-02-17T05:06:46;95541.13;;;1.96;100.00
15050;BME280;7622;42.724;23.250;2023-02-17T05:09:13;95545.97;;;2.03;100.00
15050;BME280;7622;42.724;23.250;2023-02-17T05:11:39;95551.66;;;1.90;100.00
15050;BME280;7622;42.724;23.250;2023-02-17T05:14:06;95548.34;;;1.70;100.00
15050;BME280;7622;42.724;23.250;2023-02-17T05:16:33;95559.25;;;1.54;100.00
15050;BME280;7622;42.724;23.250;2023-02-17T05:19:01;95565.97;;;1.57;100.00
15050;BME280;7622;42.724;23.250;2023-02-17T05:21:28;95572.25;;;1.50;100.00
15050;BME280;7622;42.724;23.250;2023-02-17T05:23:54;95582.19;;;1.37;100.00
15050;BME280;7622;42.724;23.250;2023-02-17T05:26:21;95573.97;;;1.31;100.00
15050;BME280;7622;42.724;23.250;2023-02-17T05:28:48;95575.47;;;1.35;100.00
15050;BME280;7622;42.724;23.250;2023-02-17T05:31:15;95573.03;;;1.32;100.00
15050;BME280;7622;42.724;23.250;2023-02-17T05:33:42;95563.06;;;1.26;100.00
15050;BME280;7622;42.724;23.250;2023-02-17T05:36:11;95584.94;;;1.33;100.00
15050;BME280;7622;42.724;23.250;2023-02-17T05:38:38;95578.66;;;1.97;100.00
15050;BME280;7622;42.724;23.250;2023-02-17T05:41:05;95580.88;;;1.86;100.00
15050;BME280;7622;42.724;23.250;2023-02-17T05:43:32;95574.59;;;1.93;100.00
15050;BME280;7622;42.724;23.250;2023-02-17T05:46:01;95589.66;;;2.18;100.00
15050;BME280;7622;42.724;23.250;2023-02-17T05:48:27;95590.44;;;2.20;100.00
15050;BME280;7622;42.724;23.250;2023-02-17T05:50:54;95594.44;;;2.26;100.00
15050;BME280;7622;42.724;23.250;2023-02-17T05:53:22;95591.91;;;2.62;100.00
15050;BME280;7622;42.724;23.250;2023-02-17T05:55:49;95583.00;;;2.69;100.00
15050;BME280;7622;42.724;23.250;2023-02-17T05:58:16;95587.34;;;3.03;100.00
15050;BME280;7622;42.724;23.250;2023-02-17T06:00:43;95591.53;;;3.21;100.00
15050;BME280;7622;42.724;23.250;2023-02-17T06:03:10;95522.88;;;2.92;100.00
15050;BME280;7622;42.724;23.250;2023-02-17T06:05:37;95592.53;;;3.69;100.00
15050;BME280;7622;42.724;23.250;2023-02-17T06:08:05;95593.59;;;3.97;100.00
15050;BME280;7622;42.724;23.250;2023-02-17T06:10:33;95593.75;;;4.10;100.00
15050;BME280;7622;42.724;23.250;2023-02-17T06:13:00;95595.69;;;4.22;100.00
15050;BME280;7622;42.724;23.250;2023-02-17T06:15:27;95595.38;;;4.28;100.00
15050;BME280;7622;42.724;23.250;2023-02-17T06:17:54;95592.47;;;4.34;100.00
15050;BME280;7622;42.724;23.250;2023-02-17T06:20:21;95592.28;;;4.53;100.00
15050;BME280;7622;42.724;23.250;2023-02-17T06:22:48;95583.81;;;4.51;100.00
15050;BME280;7622;42.724;23.250;2023-02-17T06:25:15;95596.19;;;4.60;100.00
15050;BME280;7622;42.724;23.250;2023-02-17T06:27:43;95591.25;;;4.71;100.00
15050;BME280;7622;42.724;23.250;2023-02-17T06:30:10;95593.59;;;4.76;100.00
15050;BME280;7622;42.724;23.250;2023-02-17T06:32:38;95604.03;;;4.73;100.00
15050;BME280;7622;42.724;23.250;2023-02-17T06:35:05;95601.38;;;4.90;100.00
15050;BME280;7622;42.724;23.250;2023-02-17T06:37:32;95503.03;;;4.40;100.00
15050;BME280;7622;42.724;23.250;2023-02-17T06:39:58;95605.25;;;4.97;100.00
15050;BME280;7622;42.724;23.250;2023-02-17T06:42:25;95607.28;;;5.06;100.00
15050;BME280;7622;42.724;23.250;2023-02-17T06:44:53;95608.56;;;4.99;100.00
15050;BME280;7622;42.724;23.250;2023-02-17T06:47:20;95606.28;;;5.25;100.00
15050;BME280;7622;42.724;23.250;2023-02-17T06:49:47;95609.25;;;5.47;100.00
15050;BME280;7622;42.724;23.250;2023-02-17T06:52:14;95608.31;;;5.48;100.00
15050;BME280;7622;42.724;23.250;2023-02-17T06:54:40;95576.09;;;5.27;100.00
15050;BME280;7622;42.724;23.250;2023-02-17T06:57:07;95613.34;;;5.65;100.00
15050;BME280;7622;42.724;23.250;2023-02-17T06:59:34;95620.81;;;5.84;100.00
15050;BME280;7622;42.724;23.250;2023-02-17T07:02:02;95617.97;;;5.88;100.00
15050;BME280;7622;42.724;23.250;2023-02-17T07:04:29;95607.19;;;6.10;100.00
15050;BME280;7622;42.724;23.250;2023-02-17T07:06:56;95612.84;;;6.85;100.00
15050;BME280;7622;42.724;23.250;2023-02-17T07:09:22;95609.66;;;7.60;100.00
15050;BME280;7622;42.724;23.250;2023-02-17T07:11:49;95612.72;;;8.41;100.00
15050;BME280;7622;42.724;23.250;2023-02-17T07:14:16;95608.28;;;9.03;89.77
15050;BME280;7622;42.724;23.250;2023-02-17T07:16:43;95613.78;;;9.23;84.41
15050;BME280;7622;42.724;23.250;2023-02-17T07:19:11;95612.72;;;9.60;78.41
15050;BME280;7622;42.724;23.250;2023-02-17T07:21:38;95610.94;;;10.18;73.16
15050;BME280;7622;42.724;23.250;2023-02-17T07:24:06;95615.84;;;10.88;66.26
15050;BME280;7622;42.724;23.250;2023-02-17T07:26:34;95614.28;;;11.28;61.51
15050;BME280;7622;42.724;23.250;2023-02-17T07:29:01;95620.91;;;11.32;60.51
15050;BME280;7622;42.724;23.250;2023-02-17T07:31:28;95592.84;;;11.15;60.70
15050;BME280;7622;42.724;23.250;2023-02-17T07:33:55;95591.00;;;11.59;60.44
15050;BME280;7622;42.724;23.250;2023-02-17T07:36:41;95623.28;;;11.88;59.90
15050;BME280;7622;42.724;23.250;2023-02-17T07:39:08;95632.03;;;12.08;59.34
15050;BME280;7622;42.724;23.250;2023-02-17T07:41:35;95626.88;;;12.97;56.56
15050;BME280;7622;42.724;23.250;2023-02-17T07:44:02;95619.97;;;13.46;54.78
15050;BME280;7622;42.724;23.250;2023-02-17T07:46:29;95627.63;;;13.28;53.87
15050;BME280;7622;42.724;23.250;2023-02-17T07:48:56;95629.31;;;13.68;53.57
15050;BME280;7622;42.724;23.250;2023-02-17T07:51:23;95632.25;;;14.21;51.96
15050;BME280;7622;42.724;23.250;2023-02-17T07:53:52;95623.25;;;14.33;51.18
15050;BME280;7622;42.724;23.250;2023-02-17T07:56:22;95624.47;;;14.58;50.45
15050;BME280;7622;42.724;23.250;2023-02-17T07:58:49;95625.72;;;13.78;51.49
15050;BME280;7622;42.724;23.250;2023-02-17T08:01:17;95627.63;;;13.96;51.20
15050;BME280;7622;42.724;23.250;2023-02-17T08:03:45;95595.94;;;15.10;49.21
15050;BME280;7622;42.724;23.250;2023-02-17T08:06:15;95615.34;;;15.70;47.65
15050;BME280;7622;42.724;23.250;2023-02-17T08:08:42;95629.63;;;15.93;46.75
15050;BME280;7622;42.724;23.250;2023-02-17T08:11:28;95625.78;;;16.57;45.75
15050;BME280;7622;42.724;23.250;2023-02-17T08:14:13;95623.41;;;15.94;46.39
15050;BME280;7622;42.724;23.250;2023-02-17T08:16:40;95622.09;;;16.16;44.29
15050;BME280;7622;42.724;23.250;2023-02-17T08:19:06;95619.78;;;16.39;41.74
15050;BME280;7622;42.724;23.250;2023-02-17T08:21:33;95621.63;;;16.72;40.75
15050;BME280;7622;42.724;23.250;2023-02-17T08:24:00;95617.03;;;17.16;39.40
15050;BME280;7622;42.724;23.250;2023-02-17T08:26:28;95611.88;;;16.99;38.73
15050;BME280;7622;42.724;23.250;2023-02-17T08:28:55;95602.84;;;16.93;38.26
15050;BME280;7622;42.724;23.250;2023-02-17T08:31:25;95611.94;;;17.23;38.11
15050;BME280;7622;42.724;23.250;2023-02-17T08:33:52;95609.94;;;17.83;37.31
15050;BME280;7622;42.724;23.250;2023-02-17T08:36:19;95605.97;;;17.71;37.40
15050;BME280;7622;42.724;23.250;2023-02-17T08:38:46;95610.72;;;17.92;37.14
15050;BME280;7622;42.724;23.250;2023-02-17T08:41:16;95610.25;;;17.96;37.13
15050;BME280;7622;42.724;23.250;2023-02-17T08:43:45;95599.41;;;17.75;36.89
15050;BME280;7622;42.724;23.250;2023-02-17T08:46:12;95610.34;;;18.43;36.54
15050;BME280;7622;42.724;23.250;2023-02-17T08:48:39;95605.69;;;18.54;36.34
15050;BME280;7622;42.724;23.250;2023-02-17T08:51:07;95596.75;;;18.16;36.54
15050;BME280;7622;42.724;23.250;2023-02-17T08:53:33;95606.31;;;18.00;36.21
15050;BME280;7622;42.724;23.250;2023-02-17T08:56:00;95610.41;;;18.11;36.48
15050;BME280;7622;42.724;23.250;2023-02-17T08:58:27;95615.09;;;18.48;36.21
15050;BME280;7622;42.724;23.250;2023-02-17T09:00:55;95608.53;;;18.99;35.33
15050;BME280;7622;42.724;23.250;2023-02-17T09:03:22;95614.03;;;19.20;34.71
15050;BME280;7622;42.724;23.250;2023-02-17T09:05:52;95603.34;;;19.45;34.32
15050;BME280;7622;42.724;23.250;2023-02-17T09:08:20;95587.03;;;19.72;33.91
15050;BME280;7622;42.724;23.250;2023-02-17T09:10:48;95607.88;;;19.59;34.25
15050;BME280;7622;42.724;23.250;2023-02-17T09:13:15;95602.34;;;19.46;34.39
15050;BME280;7622;42.724;23.250;2023-02-17T09:15:42;95604.91;;;19.31;34.34
15050;BME280;7622;42.724;23.250;2023-02-17T09:18:10;95610.66;;;19.35;34.37
15050;BME280;7622;42.724;23.250;2023-02-17T09:20:37;95602.16;;;19.24;34.24
15050;BME280;7622;42.724;23.250;2023-02-17T09:23:05;95603.59;;;18.96;34.68
15050;BME280;7622;42.724;23.250;2023-02-17T09:25:32;95608.16;;;19.10;34.65
15050;BME280;7622;42.724;23.250;2023-02-17T09:27:59;95601.34;;;18.85;34.69
15050;BME280;7622;42.724;23.250;2023-02-17T09:30:26;95600.06;;;18.01;34.89
15050;BME280;7622;42.724;23.250;2023-02-17T09:32:52;95607.91;;;18.26;34.98
15050;BME280;7622;42.724;23.250;2023-02-17T09:35:21;95601.81;;;18.33;34.68
15050;BME280;7622;42.724;23.250;2023-02-17T09:37:47;95599.66;;;18.53;34.93
15050;BME280;7622;42.724;23.250;2023-02-17T09:40:17;95592.75;;;18.52;35.20
15050;BME280;7622;42.724;23.250;2023-02-17T09:42:45;95601.22;;;19.09;34.63
15050;BME280;7622;42.724;23.250;2023-02-17T09:45:17;95591.06;;;19.06;34.71
15050;BME280;7622;42.724;23.250;2023-02-17T09:47:47;95599.06;;;19.21;34.47
15050;BME280;7622;42.724;23.250;2023-02-17T09:50:17;95598.72;;;19.16;34.49
15050;BME280;7622;42.724;23.250;2023-02-17T09:52:50;95603.81;;;19.56;33.78
15050;BME280;7622;42.724;23.250;2023-02-17T09:55:22;95591.69;;;19.39;34.35
15050;BME280;7622;42.724;23.250;2023-02-17T09:57:55;95601.06;;;18.80;34.85
15050;BME280;7622;42.724;23.250;2023-02-17T10:00:26;95588.47;;;18.43;35.05
15050;BME280;7622;42.724;23.250;2023-02-17T10:02:58;95589.47;;;18.89;34.60
15050;BME280;7622;42.724;23.250;2023-02-17T10:05:29;95602.03;;;18.87;34.48
15050;BME280;7622;42.724;23.250;2023-02-17T10:08:05;95582.03;;;18.62;34.32
15050;BME280;7622;42.724;23.250;2023-02-17T10:10:39;95585.44;;;19.09;34.23
15050;BME280;7622;42.724;23.250;2023-02-17T10:13:08;95583.66;;;19.02;34.04
15050;BME280;7622;42.724;23.250;2023-02-17T10:15:38;95566.94;;;19.17;34.03
15050;BME280;7622;42.724;23.250;2023-02-17T10:18:11;95578.69;;;18.76;34.29
15050;BME280;7622;42.724;23.250;2023-02-17T10:20:46;95579.97;;;19.50;34.18
15050;BME280;7622;42.724;23.250;2023-02-17T10:23:19;95544.28;;;19.62;33.74
15050;BME280;7622;42.724;23.250;2023-02-17T10:26:06;95569.28;;;19.89;33.12
15050;BME280;7622;42.724;23.250;2023-02-17T10:28:45;95551.63;;;19.89;33.78
15050;BME280;7622;42.724;23.250;2023-02-17T10:31:32;95571.41;;;20.08;32.85
15050;BME280;7622;42.724;23.250;2023-02-17T10:34:03;95564.66;;;19.68;32.79
15050;BME280;7622;42.724;23.250;2023-02-17T10:36:39;95564.38;;;20.00;31.93
15050;BME280;7622;42.724;23.250;2023-02-17T10:39:13;95553.63;;;20.39;31.59
15050;BME280;7622;42.724;23.250;2023-02-17T10:41:44;95552.09;;;20.45;31.90
15050;BME280;7622;42.724;23.250;2023-02-17T10:44:15;95546.47;;;20.11;32.75
15050;BME280;7622;42.724;23.250;2023-02-17T10:46:46;95546.19;;;19.91;32.70
15050;BME280;7622;42.724;23.250;2023-02-17T10:49:19;95535.63;;;19.45;33.21
15050;BME280;7622;42.724;23.250;2023-02-17T10:51:46;95543.94;;;20.17;32.81
15050;BME280;7622;42.724;23.250;2023-02-17T10:54:21;95538.03;;;20.30;32.60
15050;BME280;7622;42.724;23.250;2023-02-17T10:56:53;95540.00;;;19.98;32.64
15050;BME280;7622;42.724;23.250;2023-02-17T10:59:24;95530.50;;;19.52;32.63
15050;BME280;7622;42.724;23.250;2023-02-17T11:01:55;95536.19;;;18.87;33.05
15050;BME280;7622;42.724;23.250;2023-02-17T11:04:23;95535.88;;;18.82;33.19
15050;BME280;7622;42.724;23.250;2023-02-17T11:06:52;95535.72;;;19.14;32.36
15050;BME280;7622;42.724;23.250;2023-02-17T11:09:22;95519.69;;;18.93;31.60
15050;BME280;7622;42.724;23.250;2023-02-17T11:11:58;95526.91;;;18.60;32.21
15050;BME280;7622;42.724;23.250;2023-02-17T11:14:27;95525.50;;;18.33;33.14
15050;BME280;7622;42.724;23.250;2023-02-17T11:16:56;95520.22;;;18.41;33.42
15050;BME280;7622;42.724;23.250;2023-02-17T11:19:26;95517.34;;;18.12;32.87
15050;BME280;7622;42.724;23.250;2023-02-17T11:21:55;95520.38;;;17.85;34.32
15050;BME280;7622;42.724;23.250;2023-02-17T11:24:25;95518.09;;;17.49;34.19
15050;BME280;7622;42.724;23.250;2023-02-17T11:26:57;95517.75;;;17.85;34.25
15050;BME280;7622;42.724;23.250;2023-02-17T11:29:25;95512.91;;;18.13;33.92
15050;BME280;7622;42.724;23.250;2023-02-17T11:31:56;95517.56;;;18.02;34.39
15050;BME280;7622;42.724;23.250;2023-02-17T11:34:27;95504.66;;;18.32;33.56
15050;BME280;7622;42.724;23.250;2023-02-17T11:36:59;95511.63;;;18.17;33.73
15050;BME280;7622;42.724;23.250;2023-02-17T11:39:27;95510.97;;;18.06;34.02
15050;BME280;7622;42.724;23.250;2023-02-17T11:41:54;95507.19;;;18.09;34.27
15050;BME280;7622;42.724;23.250;2023-02-17T11:44:23;95502.75;;;18.09;34.26
15050;BME280;7622;42.724;23.250;2023-02-17T11:46:56;95499.97;;;18.50;34.01
15050;BME280;7622;42.724;23.250;2023-02-17T11:49:53;95504.56;;;18.01;34.07
15050;BME280;7622;42.724;23.250;2023-02-17T11:52:38;95498.56;;;17.68;34.10
15050;BME280;7622;42.724;23.250;2023-02-17T11:55:18;95493.63;;;17.49;34.42
15050;BME280;7622;42.724;23.250;2023-02-17T11:57:56;95487.00;;;17.93;34.19
15050;BME280;7622;42.724;23.250;2023-02-17T12:00:31;95499.16;;;17.94;34.08
15050;BME280;7622;42.724;23.250;2023-02-17T12:03:36;95492.81;;;17.40;34.59
15050;BME280;7622;42.724;23.250;2023-02-17T12:06:12;95483.25;;;17.88;34.24
15050;BME280;7622;42.724;23.250;2023-02-17T12:08:51;95486.72;;;17.56;34.70
15050;BME280;7622;42.724;23.250;2023-02-17T12:11:30;95476.69;;;17.59;34.82
15050;BME280;7622;42.724;23.250;2023-02-17T12:14:12;95480.16;;;17.27;34.90
15050;BME280;7622;42.724;23.250;2023-02-17T12:16:47;95460.25;;;16.76;35.70
15050;BME280;7622;42.724;23.250;2023-02-17T12:19:31;95468.19;;;17.01;35.56
15050;BME280;7622;42.724;23.250;2023-02-17T12:22:08;95470.50;;;16.53;36.01
15050;BME280;7622;42.724;23.250;2023-02-17T12:24:57;95462.69;;;16.20;36.52
15050;BME280;7622;42.724;23.250;2023-02-17T12:27:40;95454.91;;;16.44;35.94
15050;BME280;7622;42.724;23.250;2023-02-17T12:30:26;95452.34;;;16.18;36.11
15050;BME280;7622;42.724;23.250;2023-02-17T12:35:53;95440.88;;;16.11;36.31
15050;BME280;7622;42.724;23.250;2023-02-17T12:38:24;95432.00;;;16.04;36.61
15050;BME280;7622;42.724;23.250;2023-02-17T12:40:54;95434.69;;;15.86;36.97
15050;BME280;7622;42.724;23.250;2023-02-17T12:43:27;95450.75;;;15.57;37.15
15050;BME280;7622;42.724;23.250;2023-02-17T12:45:58;95434.97;;;15.75;37.00
15050;BME280;7622;42.724;23.250;2023-02-17T12:48:29;95427.75;;;15.69;37.63
15050;BME280;7622;42.724;23.250;2023-02-17T12:51:03;95421.56;;;15.26;37.58
15050;BME280;7622;42.724;23.250;2023-02-17T12:53:46;95428.22;;;15.47;37.54
15050;BME280;7622;42.724;23.250;2023-02-17T12:56:36;95417.53;;;15.58;37.89
15050;BME280;7622;42.724;23.250;2023-02-17T12:59:13;95420.03;;;15.67;37.56
15050;BME280;7622;42.724;23.250;2023-02-17T13:01:47;95415.28;;;15.71;37.94
15050;BME280;7622;42.724;23.250;2023-02-17T13:04:17;95406.16;;;15.75;37.68
15050;BME280;7622;42.724;23.250;2023-02-17T13:06:49;95417.28;;;15.77;37.14
15050;BME280;7622;42.724;23.250;2023-02-17T13:09:24;95420.91;;;15.84;37.52
15050;BME280;7622;42.724;23.250;2023-02-17T13:12:06;95421.75;;;15.85;37.57
15050;BME280;7622;42.724;23.250;2023-02-17T13:14:41;95423.19;;;15.79;37.86
15050;BME280;7622;42.724;23.250;2023-02-17T13:17:22;95417.03;;;15.88;37.08
15050;BME280;7622;42.724;23.250;2023-02-17T13:20:02;95411.00;;;15.62;37.73
15050;BME280;7622;42.724;23.250;2023-02-17T13:22:30;95415.88;;;15.57;37.94